createdAt,value
2022-12-23T00:00:01.942Z,96.82
2022-12-23T00:01:07.855Z,96.49
2022-12-23T00:02:13.214Z,96.75
2022-12-23T00:03:16.353Z,96.85
2022-12-23T00:04:19.718Z,96.77
2022-12-23T00:05:22.710Z,96.81
2022-12-23T00:06:26.110Z,96.86
2022-12-23T00:07:29.272Z,96.72
2022-12-23T00:08:32.307Z,96.57
2022-12-23T00:09:35.320Z,96.25
2022-12-23T00:10:40.277Z,96.46
2022-12-23T00:12:03.221Z,96.72
2022-12-23T00:13:26.085Z,96.46
2022-12-23T00:14:47.987Z,96.58
2022-12-23T00:15:51.012Z,96.66
2022-12-23T00:16:54.215Z,96.70
2022-12-23T00:17:57.159Z,96.58
2022-12-23T00:19:00.504Z,96.44
2022-12-23T00:20:05.131Z,96.51
2022-12-23T00:21:11.409Z,96.54
2022-12-23T00:22:14.587Z,96.46
2022-12-23T00:23:17.557Z,96.47
2022-12-23T00:24:20.733Z,96.53
2022-12-23T00:25:40.388Z,96.48
2022-12-23T00:26:43.921Z,96.46
2022-12-23T00:28:01.538Z,96.63
2022-12-23T00:29:05.072Z,96.50
2022-12-23T00:30:10.702Z,96.44
2022-12-23T00:31:15.662Z,96.32
2022-12-23T00:32:18.739Z,96.30
2022-12-23T00:33:24.583Z,96.23
2022-12-23T00:34:27.594Z,96.40
2022-12-23T00:35:32.359Z,96.29
2022-12-23T00:36:38.511Z,96.10
2022-12-23T00:37:41.610Z,96.04
2022-12-23T00:39:03.744Z,96.04
2022-12-23T00:40:28.254Z,96.18
2022-12-23T00:41:50.547Z,96.09
2022-12-23T00:42:53.608Z,95.99
2022-12-23T00:43:57.207Z,96.06
2022-12-23T00:45:15.723Z,96.09
2022-12-23T00:46:19.243Z,96.08
2022-12-23T00:47:41.735Z,95.97
2022-12-23T00:49:03.668Z,96.08
2022-12-23T00:50:07.711Z,95.95
2022-12-23T00:51:10.786Z,96.01
2022-12-23T00:52:17.846Z,96.13
2022-12-23T00:53:21.057Z,96.16
2022-12-23T00:54:24.279Z,96.01
2022-12-23T00:55:27.333Z,95.99
2022-12-23T00:56:30.960Z,96.03
2022-12-23T00:57:34.652Z,96.11
2022-12-23T00:58:37.832Z,96.19
2022-12-23T00:59:41.187Z,95.94
2022-12-23T01:01:04.150Z,96.19
2022-12-23T01:02:26.154Z,96.36
2022-12-23T01:03:48.393Z,96.22
2022-12-23T01:05:10.593Z,96.33
2022-12-23T01:06:14.401Z,96.43
2022-12-23T01:07:17.398Z,96.41
2022-12-23T01:08:23.319Z,96.34
2022-12-23T01:09:27.090Z,96.22
2022-12-23T01:10:30.545Z,96.30
2022-12-23T01:11:34.234Z,96.31
2022-12-23T01:12:37.224Z,96.46
2022-12-23T01:13:40.277Z,96.28
2022-12-23T01:14:43.342Z,96.38
2022-12-23T01:15:46.731Z,96.30
2022-12-23T01:16:49.925Z,96.53
2022-12-23T01:17:53.009Z,96.57
2022-12-23T01:18:55.980Z,96.56
2022-12-23T01:19:59.006Z,96.68
2022-12-23T01:21:08.378Z,96.60
2022-12-23T01:22:11.288Z,96.77
2022-12-23T01:23:14.304Z,96.83
2022-12-23T01:24:17.320Z,96.55
2022-12-23T01:25:20.413Z,96.62
2022-12-23T01:26:23.443Z,96.65
2022-12-23T01:27:26.395Z,96.74
2022-12-23T01:28:31.096Z,96.79
2022-12-23T01:29:34.027Z,96.62
2022-12-23T01:30:37.894Z,96.71
2022-12-23T01:31:41.274Z,96.89
2022-12-23T01:32:44.204Z,96.89
2022-12-23T01:33:47.492Z,96.63
2022-12-23T01:34:50.485Z,96.66
2022-12-23T01:36:00.372Z,96.75
2022-12-23T01:37:03.697Z,96.88
2022-12-23T01:38:06.594Z,96.99
2022-12-23T01:39:09.687Z,97.02
2022-12-23T01:40:13.003Z,97.07
2022-12-23T01:41:47.097Z,96.96
2022-12-23T01:42:51.041Z,96.93
2022-12-23T01:43:54.771Z,96.89
2022-12-23T01:45:04.583Z,96.97
2022-12-23T01:46:07.626Z,97.17
2022-12-23T01:47:14.867Z,96.99
2022-12-23T01:48:24.363Z,97.08
2022-12-23T01:49:27.381Z,97.08
2022-12-23T01:50:32.935Z,97.07
2022-12-23T01:51:36.418Z,96.75
2022-12-23T01:53:10.078Z,97.02
2022-12-23T01:54:13.237Z,96.94
2022-12-23T01:55:20.811Z,97.17
2022-12-23T01:56:26.931Z,97.16
2022-12-23T01:57:30.717Z,97.06
2022-12-23T01:58:43.105Z,96.95
2022-12-23T02:00:05.679Z,97.06
2022-12-23T02:01:29.405Z,97.22
2022-12-23T02:02:54.756Z,97.22
2022-12-23T02:04:01.510Z,97.23
2022-12-23T02:05:04.873Z,97.26
2022-12-23T02:06:48.033Z,97.26
2022-12-23T02:08:11.905Z,97.41
2022-12-23T02:09:25.388Z,97.44
2022-12-23T02:10:40.322Z,97.46
2022-12-23T02:12:05.247Z,97.49
2022-12-23T02:13:22.761Z,97.41
2022-12-23T02:15:06.660Z,97.62
2022-12-23T02:16:16.964Z,97.77
2022-12-23T02:17:42.364Z,97.71
2022-12-23T02:18:59.367Z,97.66
2022-12-23T02:20:05.058Z,97.84
2022-12-23T02:21:26.500Z,97.93
2022-12-23T02:22:58.126Z,97.86
2022-12-23T02:24:22.883Z,97.90
2022-12-23T02:25:37.784Z,97.90
2022-12-23T02:26:46.739Z,97.95
2022-12-23T02:28:25.955Z,98.06
2022-12-23T02:29:44.511Z,98.21
2022-12-23T02:31:28.500Z,98.11
2022-12-23T02:32:38.328Z,98.14
2022-12-23T02:33:54.953Z,98.35
2022-12-23T02:35:29.288Z,98.37
2022-12-23T02:36:43.671Z,98.36
2022-12-23T02:38:09.923Z,98.41
2022-12-23T02:39:29.258Z,98.20
2022-12-23T02:40:47.772Z,98.16
2022-12-23T02:41:59.105Z,98.33
2022-12-23T02:43:04.808Z,98.29
2022-12-23T02:44:34.031Z,98.14
2022-12-23T02:46:12.297Z,98.42
2022-12-23T02:47:42.455Z,98.17
2022-12-23T02:49:12.970Z,98.31
2022-12-23T02:50:25.423Z,98.50
2022-12-23T02:51:34.997Z,98.50
2022-12-23T02:52:41.340Z,98.56
2022-12-23T02:53:55.034Z,98.43
2022-12-23T02:55:08.546Z,98.38
2022-12-23T02:56:14.630Z,98.28
2022-12-23T02:57:23.464Z,98.42
2022-12-23T02:58:36.634Z,98.39
2022-12-23T02:59:44.697Z,98.56
2022-12-23T03:00:49.611Z,98.52
2022-12-23T03:01:54.683Z,98.46
2022-12-23T03:02:59.421Z,98.49
2022-12-23T03:04:02.808Z,98.44
2022-12-23T03:05:07.179Z,98.60
2022-12-23T03:06:27.527Z,98.70
2022-12-23T03:07:35.460Z,98.61
2022-12-23T03:08:43.484Z,98.62
2022-12-23T03:10:09.456Z,98.68
2022-12-23T03:11:15.317Z,98.76
2022-12-23T03:12:39.065Z,98.79
2022-12-23T03:14:05.149Z,98.75
2022-12-23T03:15:17.111Z,98.83
2022-12-23T03:16:57.907Z,99.01
2022-12-23T03:18:16.655Z,98.88
2022-12-23T03:19:42.792Z,99.07
2022-12-23T03:21:08.925Z,99.14
2022-12-23T03:22:17.513Z,98.95
2022-12-23T03:23:26.208Z,99.04
2022-12-23T03:24:44.771Z,99.13
2022-12-23T03:25:59.036Z,99.24
2022-12-23T03:27:15.373Z,99.16
2022-12-23T03:28:33.918Z,99.37
2022-12-23T03:29:54.340Z,99.26
2022-12-23T03:31:01.364Z,99.20
2022-12-23T03:32:06.319Z,98.96
2022-12-23T03:33:17.639Z,99.21
2022-12-23T03:34:26.117Z,99.18
2022-12-23T03:35:41.095Z,99.17
2022-12-23T03:36:57.337Z,99.24
2022-12-23T03:38:02.775Z,99.23
2022-12-23T03:39:10.684Z,99.35
2022-12-23T03:40:21.999Z,99.44
2022-12-23T03:41:31.343Z,99.32
2022-12-23T03:42:40.670Z,99.25
2022-12-23T03:43:51.220Z,99.26
2022-12-23T03:45:28.443Z,99.42
2022-12-23T03:46:27.887Z,99.28
2022-12-23T03:47:35.905Z,99.34
2022-12-23T03:49:03.702Z,99.26
2022-12-23T03:50:11.440Z,99.40
2022-12-23T03:51:24.258Z,99.55
2022-12-23T03:52:53.590Z,99.24
2022-12-23T03:54:02.323Z,99.44
2022-12-23T03:55:11.697Z,99.47
2022-12-23T03:56:28.904Z,99.33
2022-12-23T03:57:41.760Z,99.36
2022-12-23T03:58:56.286Z,99.23
2022-12-23T03:59:59.439Z,99.25
2022-12-23T04:01:27.146Z,99.39
2022-12-23T04:02:36.790Z,99.47
2022-12-23T04:03:56.026Z,99.50
2022-12-23T04:05:11.662Z,99.51
2022-12-23T04:06:17.759Z,99.65
2022-12-23T04:07:30.558Z,99.59
2022-12-23T04:08:36.487Z,99.50
2022-12-23T04:09:40.401Z,99.45
2022-12-23T04:10:43.533Z,99.55
2022-12-23T04:11:47.811Z,99.56
2022-12-23T04:12:51.978Z,99.54
2022-12-23T04:13:54.966Z,99.58
2022-12-23T04:14:58.060Z,99.68
2022-12-23T04:16:02.920Z,99.45
2022-12-23T04:17:06.152Z,99.62
2022-12-23T04:18:10.938Z,99.54
2022-12-23T04:19:14.158Z,99.42
2022-12-23T04:20:17.363Z,99.36
2022-12-23T04:21:20.479Z,99.42
2022-12-23T04:22:23.499Z,99.54
2022-12-23T04:23:26.593Z,99.57
2022-12-23T04:24:29.647Z,99.41
2022-12-23T04:25:32.646Z,99.41
2022-12-23T04:26:35.737Z,99.31
2022-12-23T04:27:39.119Z,99.29
2022-12-23T04:28:42.122Z,99.29
2022-12-23T04:29:45.144Z,99.21
2022-12-23T04:30:48.061Z,99.23
2022-12-23T04:31:51.142Z,99.03
2022-12-23T04:32:54.282Z,99.17
2022-12-23T04:33:57.467Z,99.19
2022-12-23T04:35:00.525Z,99.05
2022-12-23T04:36:03.629Z,99.10
2022-12-23T04:37:06.645Z,98.88
2022-12-23T04:38:09.695Z,98.93
2022-12-23T04:39:12.777Z,98.81
2022-12-23T04:40:15.990Z,98.68
2022-12-23T04:41:19.021Z,98.65
2022-12-23T04:42:22.111Z,98.68
2022-12-23T04:43:25.265Z,98.74
2022-12-23T04:44:28.205Z,98.71
2022-12-23T04:45:32.802Z,98.58
2022-12-23T04:46:35.795Z,98.57
2022-12-23T04:47:38.993Z,98.51
2022-12-23T04:48:42.311Z,98.32
2022-12-23T04:49:45.405Z,98.45
2022-12-23T04:50:48.483Z,98.44
2022-12-23T04:51:51.554Z,98.60
2022-12-23T04:52:54.596Z,98.56
2022-12-23T04:53:57.595Z,98.55
2022-12-23T04:55:00.682Z,98.60
2022-12-23T04:56:04.325Z,98.73
2022-12-23T04:57:07.561Z,98.46
2022-12-23T04:58:10.538Z,98.58
2022-12-23T04:59:13.875Z,98.49
2022-12-23T05:00:17.296Z,98.69
2022-12-23T05:01:20.612Z,98.72
2022-12-23T05:02:23.749Z,98.57
2022-12-23T05:03:26.938Z,98.52
2022-12-23T05:04:30.243Z,98.61
2022-12-23T05:05:33.240Z,98.59
2022-12-23T05:06:37.501Z,98.63
2022-12-23T05:07:40.432Z,98.34
2022-12-23T05:08:43.475Z,98.50
2022-12-23T05:09:46.668Z,98.53
2022-12-23T05:10:49.696Z,98.50
2022-12-23T05:11:52.908Z,98.56
2022-12-23T05:12:55.828Z,98.43
2022-12-23T05:13:58.773Z,98.56
2022-12-23T05:15:02.006Z,98.55
2022-12-23T05:16:05.472Z,98.59
2022-12-23T05:17:08.476Z,98.77
2022-12-23T05:18:12.569Z,98.62
2022-12-23T05:19:15.595Z,98.61
2022-12-23T05:20:18.767Z,98.48
2022-12-23T05:21:21.800Z,98.67
2022-12-23T05:22:24.821Z,98.53
2022-12-23T05:23:27.944Z,98.50
2022-12-23T05:24:30.939Z,98.78
2022-12-23T05:25:36.356Z,98.73
2022-12-23T05:26:39.291Z,98.58
2022-12-23T05:27:42.257Z,98.71
2022-12-23T05:28:45.746Z,98.67
2022-12-23T05:29:48.751Z,98.66
2022-12-23T05:31:01.381Z,98.55
2022-12-23T05:32:04.710Z,98.57
2022-12-23T05:33:08.069Z,98.51
2022-12-23T05:34:11.171Z,98.63
2022-12-23T05:35:14.283Z,98.54
2022-12-23T05:36:17.566Z,98.47
2022-12-23T05:37:20.704Z,98.59
2022-12-23T05:38:24.647Z,98.55
2022-12-23T05:39:27.638Z,98.49
2022-12-23T05:40:31.648Z,98.66
2022-12-23T05:41:36.379Z,98.48
2022-12-23T05:42:39.521Z,98.64
2022-12-23T05:43:43.062Z,98.54
2022-12-23T05:44:46.099Z,98.74
2022-12-23T05:45:50.368Z,98.52
2022-12-23T05:46:53.504Z,98.52
2022-12-23T05:47:56.566Z,98.67
2022-12-23T05:48:59.994Z,98.64
2022-12-23T05:50:04.122Z,98.64
2022-12-23T05:51:07.399Z,98.79
2022-12-23T05:52:10.556Z,98.66
2022-12-23T05:53:13.531Z,98.51
2022-12-23T05:54:16.594Z,98.53
2022-12-23T05:55:19.654Z,98.53
2022-12-23T05:56:22.812Z,98.71
2022-12-23T05:57:26.094Z,98.57
2022-12-23T05:58:29.203Z,98.58
2022-12-23T05:59:32.313Z,98.52
2022-12-23T06:00:35.357Z,98.57
2022-12-23T06:01:38.492Z,98.53
2022-12-23T06:02:42.220Z,98.47
2022-12-23T06:03:45.895Z,98.46
2022-12-23T06:04:49.825Z,98.48
2022-12-23T06:05:53.018Z,98.59
2022-12-23T06:06:56.685Z,98.52
2022-12-23T06:07:59.910Z,98.67
2022-12-23T06:09:03.330Z,98.59
2022-12-23T06:10:09.151Z,98.48
2022-12-23T06:11:13.176Z,98.59
2022-12-23T06:12:16.157Z,98.47
2022-12-23T06:13:19.257Z,98.58
2022-12-23T06:14:26.967Z,98.60
2022-12-23T06:15:32.423Z,98.48
2022-12-23T06:16:35.398Z,98.43
2022-12-23T06:17:38.967Z,98.57
2022-12-23T06:18:42.007Z,98.64
2022-12-23T06:19:45.063Z,98.51
2022-12-23T06:20:48.425Z,98.46
2022-12-23T06:21:51.393Z,98.47
2022-12-23T06:22:54.392Z,98.49
2022-12-23T06:23:57.760Z,98.44
2022-12-23T06:25:00.737Z,98.57
2022-12-23T06:26:04.531Z,98.57
2022-12-23T06:27:07.919Z,98.39
2022-12-23T06:28:10.997Z,98.45
2022-12-23T06:29:14.232Z,98.40
2022-12-23T06:30:17.278Z,98.40
2022-12-23T06:31:20.346Z,98.30
2022-12-23T06:32:23.382Z,98.31
2022-12-23T06:33:26.516Z,98.15
2022-12-23T06:34:30.025Z,98.22
2022-12-23T06:35:33.118Z,98.33
2022-12-23T06:36:36.141Z,98.13
2022-12-23T06:37:39.260Z,98.26
2022-12-23T06:38:42.364Z,98.18
2022-12-23T06:39:45.659Z,98.19
2022-12-23T06:40:48.813Z,98.10
2022-12-23T06:41:51.822Z,98.21
2022-12-23T06:42:54.837Z,98.13
2022-12-23T06:43:57.747Z,97.95
2022-12-23T06:45:00.940Z,98.11
2022-12-23T06:46:04.138Z,98.14
2022-12-23T06:47:07.190Z,98.04
2022-12-23T06:48:10.394Z,97.92
2022-12-23T06:49:13.945Z,98.00
2022-12-23T06:50:17.597Z,98.02
2022-12-23T06:51:21.598Z,97.98
2022-12-23T06:52:24.527Z,97.89
2022-12-23T06:53:27.625Z,97.76
2022-12-23T06:54:30.676Z,97.84
2022-12-23T06:55:33.929Z,97.88
2022-12-23T06:56:36.972Z,97.63
2022-12-23T06:57:40.297Z,97.78
2022-12-23T06:58:43.454Z,97.75
2022-12-23T06:59:46.573Z,97.68
2022-12-23T07:00:50.114Z,97.74
2022-12-23T07:01:53.380Z,97.52
2022-12-23T07:02:56.793Z,97.62
2022-12-23T07:04:00.128Z,97.58
2022-12-23T07:05:03.196Z,97.52
2022-12-23T07:06:06.779Z,97.59
2022-12-23T07:07:09.826Z,97.36
2022-12-23T07:08:12.880Z,97.38
2022-12-23T07:09:16.030Z,97.45
2022-12-23T07:10:19.133Z,97.38
2022-12-23T07:11:22.128Z,97.36
2022-12-23T07:12:25.074Z,97.36
2022-12-23T07:13:28.061Z,97.19
2022-12-23T07:14:31.110Z,97.13
2022-12-23T07:15:34.185Z,97.37
2022-12-23T07:16:37.808Z,97.18
2022-12-23T07:17:40.891Z,97.29
2022-12-23T07:18:44.091Z,97.27
2022-12-23T07:19:47.046Z,97.16
2022-12-23T07:20:51.369Z,97.01
2022-12-23T07:21:54.579Z,97.18
2022-12-23T07:22:58.232Z,96.99
2022-12-23T07:24:01.232Z,97.01
2022-12-23T07:25:04.508Z,96.95
2022-12-23T07:26:07.579Z,96.64
2022-12-23T07:27:10.979Z,96.83
2022-12-23T07:28:13.967Z,96.87
2022-12-23T07:29:16.921Z,96.92
2022-12-23T07:30:20.011Z,96.64
2022-12-23T07:31:23.415Z,96.57
2022-12-23T07:32:26.681Z,96.99
2022-12-23T07:33:29.756Z,96.77
2022-12-23T07:34:32.746Z,96.66
2022-12-23T07:35:36.437Z,96.53
2022-12-23T07:36:40.083Z,96.53
2022-12-23T07:37:43.640Z,96.32
2022-12-23T07:38:51.300Z,96.33
2022-12-23T07:39:54.327Z,96.33
2022-12-23T07:40:57.327Z,96.30
2022-12-23T07:42:16.980Z,96.22
2022-12-23T07:43:23.803Z,96.37
2022-12-23T07:44:26.815Z,96.14
2022-12-23T07:45:30.614Z,96.18
2022-12-23T07:46:33.801Z,96.17
2022-12-23T07:47:37.054Z,96.40
2022-12-23T07:48:41.917Z,96.22
2022-12-23T07:49:44.999Z,96.42
2022-12-23T07:50:48.022Z,96.25
2022-12-23T07:51:51.024Z,96.26
2022-12-23T07:52:55.038Z,96.15
2022-12-23T07:53:58.214Z,96.39
2022-12-23T07:55:01.157Z,96.17
2022-12-23T07:56:04.602Z,95.99
2022-12-23T07:57:07.804Z,96.17
2022-12-23T07:58:10.785Z,96.12
2022-12-23T07:59:14.236Z,96.24
2022-12-23T08:00:18.281Z,96.15
2022-12-23T08:01:21.875Z,96.32
2022-12-23T08:02:25.440Z,96.05
2022-12-23T08:03:29.765Z,95.90
2022-12-23T08:04:33.032Z,95.94
2022-12-23T08:05:36.116Z,95.87
2022-12-23T08:06:39.178Z,96.08
2022-12-23T08:07:42.640Z,95.75
2022-12-23T08:08:46.867Z,95.89
2022-12-23T08:09:50.146Z,95.94
2022-12-23T08:11:00.745Z,95.92
2022-12-23T08:12:03.961Z,95.79
2022-12-23T08:13:06.868Z,95.80
2022-12-23T08:14:09.917Z,95.93
2022-12-23T08:15:13.057Z,95.90
2022-12-23T08:16:16.151Z,95.64
2022-12-23T08:17:21.512Z,95.50
2022-12-23T08:18:25.759Z,95.78
2022-12-23T08:19:28.788Z,95.75
2022-12-23T08:20:32.060Z,95.52
2022-12-23T08:21:35.014Z,95.35
2022-12-23T08:22:38.230Z,95.63
2022-12-23T08:23:42.159Z,95.11
2022-12-23T08:24:45.303Z,95.17
2022-12-23T08:25:48.519Z,95.36
2022-12-23T08:26:51.703Z,95.22
2022-12-23T08:27:54.666Z,95.31
2022-12-23T08:28:57.781Z,95.34
2022-12-23T08:30:00.842Z,95.29
2022-12-23T08:31:05.615Z,95.30
2022-12-23T08:32:08.807Z,95.15
2022-12-23T08:33:11.904Z,95.06
2022-12-23T08:34:14.912Z,95.25
2022-12-23T08:35:17.978Z,95.02
2022-12-23T08:36:25.468Z,95.31
2022-12-23T08:37:28.739Z,95.27
2022-12-23T08:38:32.882Z,95.12
2022-12-23T08:39:36.022Z,94.65
2022-12-23T08:40:40.794Z,94.77
2022-12-23T08:41:46.742Z,94.98
2022-12-23T08:42:49.759Z,94.64
2022-12-23T08:43:53.685Z,94.67
2022-12-23T08:44:56.613Z,94.83
2022-12-23T08:45:59.760Z,94.70
2022-12-23T08:47:03.325Z,94.77
2022-12-23T08:48:09.348Z,94.85
2022-12-23T08:49:12.832Z,94.72
2022-12-23T08:50:15.856Z,94.88
2022-12-23T08:51:21.642Z,94.86
2022-12-23T08:52:24.789Z,94.70
2022-12-23T08:53:27.761Z,94.79
2022-12-23T08:54:30.694Z,94.71
2022-12-23T08:55:38.732Z,94.64
2022-12-23T08:56:42.908Z,94.75
2022-12-23T08:57:46.082Z,94.71
2022-12-23T08:58:52.788Z,94.66
2022-12-23T08:59:55.825Z,94.86
2022-12-23T09:01:04.098Z,95.01
2022-12-23T09:02:10.916Z,94.65
2022-12-23T09:03:14.577Z,94.54
2022-12-23T09:04:17.773Z,94.77
2022-12-23T09:05:20.818Z,94.68
2022-12-23T09:06:30.478Z,94.42
2022-12-23T09:07:33.715Z,94.37
2022-12-23T09:08:37.225Z,94.50
2022-12-23T09:09:40.188Z,94.42
2022-12-23T09:10:44.311Z,94.43
2022-12-23T09:11:47.525Z,94.29
2022-12-23T09:12:50.657Z,94.34
2022-12-23T09:13:53.975Z,94.30
2022-12-23T09:14:57.054Z,94.33
2022-12-23T09:16:00.148Z,94.14
2022-12-23T09:17:03.123Z,94.16
2022-12-23T09:18:06.218Z,94.07
2022-12-23T09:19:09.588Z,94.13
2022-12-23T09:20:12.607Z,94.38
2022-12-23T09:21:18.332Z,93.93
2022-12-23T09:22:21.373Z,94.27
2022-12-23T09:23:24.734Z,94.22
2022-12-23T09:24:28.052Z,94.13
2022-12-23T09:25:33.621Z,94.16
2022-12-23T09:26:36.715Z,94.14
2022-12-23T09:27:39.704Z,94.31
2022-12-23T09:28:42.770Z,94.07
2022-12-23T09:29:45.889Z,93.82
2022-12-23T09:30:49.136Z,93.77
2022-12-23T09:31:52.273Z,93.80
2022-12-23T09:32:55.484Z,93.74
2022-12-23T09:33:58.599Z,93.68
2022-12-23T09:35:01.763Z,93.95
2022-12-23T09:36:06.061Z,93.79
2022-12-23T09:37:09.046Z,93.79
2022-12-23T09:38:12.201Z,93.86
2022-12-23T09:39:15.173Z,94.01
2022-12-23T09:40:21.083Z,93.90
2022-12-23T09:41:47.511Z,93.74
2022-12-23T09:43:02.755Z,93.55
2022-12-23T09:44:36.458Z,93.72
2022-12-23T09:45:42.594Z,93.30
2022-12-23T09:46:51.828Z,93.55
2022-12-23T09:47:56.716Z,93.78
2022-12-23T09:49:05.213Z,93.78
2022-12-23T09:50:24.013Z,93.73
2022-12-23T09:51:29.200Z,93.82
2022-12-23T09:53:13.007Z,93.87
2022-12-23T09:54:29.830Z,94.18
2022-12-23T09:56:02.529Z,93.71
2022-12-23T09:57:31.866Z,93.48
2022-12-23T09:58:47.070Z,93.55
2022-12-23T10:00:14.104Z,93.54
2022-12-23T10:01:44.659Z,93.65
2022-12-23T10:03:19.707Z,93.77
2022-12-23T10:04:22.959Z,93.68
2022-12-23T10:05:42.594Z,93.69
2022-12-23T10:06:50.989Z,93.51
2022-12-23T10:08:03.905Z,93.49
2022-12-23T10:09:10.022Z,93.30
2022-12-23T10:10:44.332Z,93.28
2022-12-23T10:11:53.433Z,92.94
2022-12-23T10:13:00.448Z,93.18
2022-12-23T10:14:19.625Z,93.02
2022-12-23T10:15:29.626Z,93.06
2022-12-23T10:16:38.560Z,93.25
2022-12-23T10:17:42.979Z,93.39
2022-12-23T10:19:12.829Z,93.19
2022-12-23T10:20:20.716Z,92.84
2022-12-23T10:21:33.053Z,92.98
2022-12-23T10:22:41.959Z,93.22
2022-12-23T10:23:51.314Z,93.18
2022-12-23T10:24:57.701Z,93.18
2022-12-23T10:26:03.920Z,93.13
2022-12-23T10:27:26.496Z,92.85
2022-12-23T10:28:29.508Z,92.99
2022-12-23T10:29:34.145Z,92.81
2022-12-23T10:31:05.936Z,92.91
2022-12-23T10:32:35.968Z,92.93
2022-12-23T10:33:50.027Z,92.97
2022-12-23T10:35:05.002Z,92.86
2022-12-23T10:36:22.905Z,92.76
2022-12-23T10:37:32.341Z,92.87
2022-12-23T10:38:44.959Z,92.95
2022-12-23T10:39:47.821Z,92.73
2022-12-23T10:40:57.714Z,92.63
2022-12-23T10:42:22.052Z,92.80
2022-12-23T10:43:40.226Z,92.89
2022-12-23T10:44:59.147Z,92.93
2022-12-23T10:46:27.511Z,92.89
2022-12-23T10:47:45.588Z,92.69
2022-12-23T10:49:25.461Z,92.58
2022-12-23T10:50:46.151Z,92.69
2022-12-23T10:51:53.682Z,92.37
2022-12-23T10:53:01.126Z,92.35
2022-12-23T10:54:09.905Z,92.52
2022-12-23T10:55:33.125Z,92.60
2022-12-23T10:56:37.517Z,92.36
2022-12-23T10:57:40.920Z,92.26
2022-12-23T10:58:50.000Z,92.11
2022-12-23T10:59:53.736Z,92.25
2022-12-23T11:00:59.619Z,91.90
2022-12-23T11:02:29.519Z,91.88
2022-12-23T11:03:59.714Z,92.01
2022-12-23T11:05:02.931Z,92.24
2022-12-23T11:06:08.449Z,91.98
2022-12-23T11:07:43.947Z,92.03
2022-12-23T11:08:48.469Z,92.09
2022-12-23T11:10:00.785Z,92.29
2022-12-23T11:11:04.705Z,91.77
2022-12-23T11:12:10.123Z,91.65
2022-12-23T11:13:24.682Z,91.72
2022-12-23T11:14:33.491Z,91.73
2022-12-23T11:15:39.915Z,91.44
2022-12-23T11:16:47.025Z,91.43
2022-12-23T11:18:15.867Z,91.44
2022-12-23T11:19:18.974Z,91.51
2022-12-23T11:20:22.036Z,91.67
2022-12-23T11:21:26.591Z,91.78
2022-12-23T11:22:29.708Z,91.69
2022-12-23T11:23:36.574Z,91.42
2022-12-23T11:24:43.280Z,91.22
2022-12-23T11:25:47.112Z,91.28
2022-12-23T11:27:07.018Z,91.21
2022-12-23T11:28:19.988Z,91.18
2022-12-23T11:29:28.809Z,91.41
2022-12-23T11:30:53.462Z,91.26
2022-12-23T11:31:59.352Z,91.17
2022-12-23T11:33:02.373Z,91.16
2022-12-23T11:34:14.232Z,91.28
2022-12-23T11:35:26.306Z,91.28
2022-12-23T11:36:31.488Z,91.42
2022-12-23T11:37:43.224Z,91.66
2022-12-23T11:39:00.288Z,91.33
2022-12-23T11:40:14.721Z,91.29
2022-12-23T11:41:22.533Z,91.62
2022-12-23T11:42:30.251Z,91.66
2022-12-23T11:43:34.228Z,91.49
2022-12-23T11:44:45.971Z,91.21
2022-12-23T11:46:17.480Z,90.89
2022-12-23T11:47:23.615Z,90.53
2022-12-23T11:48:30.468Z,90.57
2022-12-23T11:49:33.410Z,90.84
2022-12-23T11:50:39.555Z,90.96
2022-12-23T11:52:11.202Z,91.06
2022-12-23T11:53:25.161Z,91.04
2022-12-23T11:54:29.333Z,91.16
2022-12-23T11:55:33.026Z,91.10
2022-12-23T11:56:40.657Z,91.10
2022-12-23T11:57:46.718Z,90.90
2022-12-23T11:58:57.121Z,90.82
2022-12-23T12:00:01.579Z,90.78
2022-12-23T12:01:18.787Z,90.58
2022-12-23T12:02:47.537Z,90.87
2022-12-23T12:03:55.906Z,90.77
2022-12-23T12:05:38.377Z,90.76
2022-12-23T12:06:48.425Z,90.71
2022-12-23T12:08:01.314Z,90.74
2022-12-23T12:09:06.784Z,90.75
2022-12-23T12:10:18.248Z,90.86
2022-12-23T12:11:31.358Z,90.77
2022-12-23T12:12:34.607Z,90.78
2022-12-23T12:13:48.428Z,91.08
2022-12-23T12:14:54.533Z,91.04
2022-12-23T12:16:11.011Z,91.13
2022-12-23T12:17:22.775Z,90.82
2022-12-23T12:18:26.497Z,91.10
2022-12-23T12:19:35.757Z,91.16
2022-12-23T12:20:53.268Z,91.22
2022-12-23T12:22:02.521Z,91.29
2022-12-23T12:23:14.711Z,90.78
2022-12-23T12:24:24.280Z,90.86
2022-12-23T12:25:48.882Z,90.79
2022-12-23T12:26:57.599Z,91.02
2022-12-23T12:28:04.270Z,91.07
2022-12-23T12:29:28.576Z,91.27
2022-12-23T12:30:40.934Z,91.07
2022-12-23T12:31:52.457Z,91.12
2022-12-23T12:33:11.938Z,91.18
2022-12-23T12:34:49.642Z,91.10
2022-12-23T12:36:15.285Z,91.35
2022-12-23T12:37:24.399Z,91.34
2022-12-23T12:38:27.342Z,91.53
2022-12-23T12:39:42.938Z,91.50
2022-12-23T12:40:51.093Z,91.47
2022-12-23T12:42:05.491Z,91.60
2022-12-23T12:43:23.561Z,91.38
2022-12-23T12:44:43.451Z,91.46
2022-12-23T12:45:59.010Z,91.49
2022-12-23T12:47:36.142Z,91.27
2022-12-23T12:48:46.604Z,91.43
2022-12-23T12:50:12.655Z,91.41
2022-12-23T12:51:27.579Z,91.58
2022-12-23T12:52:39.023Z,91.60
2022-12-23T12:53:54.753Z,91.55
2022-12-23T12:55:06.166Z,91.66
2022-12-23T12:56:22.701Z,91.58
2022-12-23T12:57:26.109Z,91.50
2022-12-23T12:58:29.258Z,91.75
2022-12-23T12:59:35.602Z,91.55
2022-12-23T13:01:03.712Z,91.48
2022-12-23T13:02:25.556Z,91.33
2022-12-23T13:04:04.383Z,91.44
2022-12-23T13:05:16.036Z,91.63
2022-12-23T13:06:32.682Z,91.66
2022-12-23T13:08:03.070Z,91.59
2022-12-23T13:09:29.830Z,91.80
2022-12-23T13:10:45.301Z,91.81
2022-12-23T13:12:10.090Z,91.80
2022-12-23T13:13:23.474Z,91.56
2022-12-23T13:14:51.390Z,91.68
2022-12-23T13:16:02.917Z,91.74
2022-12-23T13:17:17.606Z,91.66
2022-12-23T13:18:51.997Z,91.85
2022-12-23T13:20:09.029Z,91.91
2022-12-23T13:21:38.611Z,92.01
2022-12-23T13:22:44.905Z,91.93
2022-12-23T13:24:09.557Z,91.85
2022-12-23T13:25:22.665Z,91.72
2022-12-23T13:26:32.850Z,92.06
2022-12-23T13:27:41.159Z,91.70
2022-12-23T13:28:51.323Z,91.82
2022-12-23T13:30:08.607Z,91.75
2022-12-23T13:31:31.172Z,91.57
2022-12-23T13:33:06.984Z,91.66
2022-12-23T13:34:34.369Z,91.87
2022-12-23T13:36:02.979Z,91.90
2022-12-23T13:37:41.957Z,92.07
2022-12-23T13:39:03.466Z,92.14
2022-12-23T13:40:17.255Z,92.22
2022-12-23T13:41:39.637Z,92.23
2022-12-23T13:42:48.296Z,92.30
2022-12-23T13:44:05.417Z,92.11
2022-12-23T13:45:16.535Z,92.19
2022-12-23T13:46:37.686Z,92.18
2022-12-23T13:48:01.125Z,92.20
2022-12-23T13:49:41.707Z,92.13
2022-12-23T13:51:08.172Z,92.19
2022-12-23T13:52:35.994Z,92.21
2022-12-23T13:53:44.494Z,92.30
2022-12-23T13:54:56.145Z,92.30
2022-12-23T13:56:22.914Z,92.24
2022-12-23T13:57:35.598Z,92.42
2022-12-23T13:58:40.373Z,92.37
2022-12-23T14:00:01.093Z,92.22
2022-12-23T14:01:16.037Z,92.35
2022-12-23T14:02:57.851Z,92.47
2022-12-23T14:04:28.791Z,92.63
2022-12-23T14:05:31.926Z,92.65
2022-12-23T14:06:36.733Z,92.85
2022-12-23T14:07:44.716Z,92.80
2022-12-23T14:08:48.543Z,92.72
2022-12-23T14:09:55.909Z,92.74
2022-12-23T14:11:10.991Z,92.77
2022-12-23T14:12:26.732Z,92.84
2022-12-23T14:13:42.333Z,92.84
2022-12-23T14:15:12.355Z,92.87
2022-12-23T14:16:21.479Z,92.81
2022-12-23T14:17:49.821Z,92.94
2022-12-23T14:19:29.710Z,93.31
2022-12-23T14:20:39.255Z,93.41
2022-12-23T14:21:48.745Z,93.17
2022-12-23T14:23:30.172Z,93.25
2022-12-23T14:25:00.447Z,93.43
2022-12-23T14:26:09.488Z,93.26
2022-12-23T14:27:35.606Z,93.22
2022-12-23T14:28:51.767Z,93.20
2022-12-23T14:30:16.669Z,93.15
2022-12-23T14:31:28.903Z,93.35
2022-12-23T14:32:41.983Z,93.30
2022-12-23T14:33:48.717Z,93.52
2022-12-23T14:35:17.013Z,93.38
2022-12-23T14:36:25.634Z,93.44
2022-12-23T14:37:33.508Z,93.25
2022-12-23T14:38:36.521Z,93.47
2022-12-23T14:39:39.540Z,93.50
2022-12-23T14:40:42.487Z,93.52
2022-12-23T14:41:51.798Z,93.50
2022-12-23T14:43:42.588Z,93.44
2022-12-23T14:44:46.553Z,93.58
2022-12-23T14:45:54.733Z,93.50
2022-12-23T14:46:58.685Z,93.40
2022-12-23T14:48:22.534Z,93.44
2022-12-23T14:49:41.529Z,93.41
2022-12-23T14:50:57.707Z,93.60
2022-12-23T14:52:39.190Z,93.54
2022-12-23T14:53:59.527Z,93.44
2022-12-23T14:55:30.165Z,93.45
2022-12-23T14:56:40.539Z,93.51